Time;durP1;ratioP1;P1;durP2;ratioP2;P2;SDS_P1;SDS_P2;PMS_P1;PMS_P2;Temp;Humidity;BMP_temperature;BMP_pressure;BME280_temperature;BME280_humidity;BME280_pressure;Samples;Min_cycle;Max_cycle;Signal;HPM_P1;HPM_P2
2021/01/14 00:04:15;;;;;;;16.98;7.95;;;;;;;-2.27;100.00;94290.16;10552861;28;20020;-74
2021/01/14 00:09:15;;;;;;;20.13;7.23;;;;;;;-2.20;100.00;94273.53;10534618;28;20028;-74
2021/01/14 00:14:16;;;;;;;16.43;8.33;;;;;;;-2.30;100.00;94282.66;10507469;28;20355;-74
2021/01/14 00:19:16;;;;;;;16.67;7.88;;;;;;;-2.10;100.00;94290.53;10521158;28;20305;-74
2021/01/14 00:24:17;;;;;;;17.40;7.37;;;;;;;-1.97;100.00;94286.25;10531862;28;20746;-74
2021/01/14 00:29:17;;;;;;;13.73;6.65;;;;;;;-1.88;100.00;94282.38;10531190;28;20478;-74
2021/01/14 00:34:18;;;;;;;15.80;8.23;;;;;;;-1.90;100.00;94279.97;10498048;28;20035;-74
2021/01/14 00:39:18;;;;;;;16.77;7.97;;;;;;;-1.80;100.00;94282.16;10489429;28;20476;-74
2021/01/14 00:44:18;;;;;;;17.43;8.30;;;;;;;-2.06;100.00;94286.47;10488783;28;20660;-74
2021/01/14 00:49:19;;;;;;;11.23;6.20;;;;;;;-2.02;100.00;94280.78;10489139;28;20407;-74
2021/01/14 00:54:19;;;;;;;19.30;7.33;;;;;;;-2.10;100.00;94289.72;10488690;28;20017;-74
2021/01/14 00:59:20;;;;;;;13.77;7.72;;;;;;;-2.20;100.00;94279.63;10487980;28;20380;-74
2021/01/14 01:04:20;;;;;;;13.57;7.60;;;;;;;-2.26;100.00;94285.69;10488090;28;20040;-74
2021/01/14 01:09:20;;;;;;;12.10;7.30;;;;;;;-2.20;100.00;94291.97;10487949;28;20116;-74
2021/01/14 01:14:21;;;;;;;14.70;7.10;;;;;;;-2.08;100.00;94288.50;10488063;28;20271;-74
2021/01/14 01:19:21;;;;;;;12.88;5.57;;;;;;;-1.94;100.00;94273.50;10487618;28;20294;-74
2021/01/14 01:24:22;;;;;;;16.05;5.60;;;;;;;-2.09;100.00;94278.97;10503048;28;20036;-74
2021/01/14 01:29:22;;;;;;;13.70;5.97;;;;;;;-2.13;100.00;94279.59;10529871;28;20033;-74
2021/01/14 01:34:22;;;;;;;10.50;6.67;;;;;;;-2.04;100.00;94264.38;10528766;28;20745;-74
2021/01/14 01:39:23;;;;;;;14.43;6.03;;;;;;;-2.02;100.00;94257.91;10529420;28;20270;-74
2021/01/14 01:44:25;;;;;;;13.90;6.27;;;;;;;-1.95;100.00;94260.53;10529263;28;20494;-74
2021/01/14 01:49:25;;;;;;;12.32;6.32;;;;;;;-2.06;100.00;94260.13;10515213;28;20365;-74
2021/01/14 01:54:25;;;;;;;12.93;5.80;;;;;;;-1.98;100.00;94258.28;10487284;28;20024;-74
2021/01/14 01:59:26;;;;;;;11.43;5.30;;;;;;;-2.00;100.00;94247.16;10487390;28;20282;-74
2021/01/14 02:04:27;;;;;;;15.38;6.22;;;;;;;-1.95;100.00;94247.38;10468893;28;20479;-74
2021/01/14 02:09:27;;;;;;;9.73;5.67;;;;;;;-2.26;100.00;94243.56;10469296;28;20016;-74
2021/01/14 02:14:29;;;;;;;9.77;5.50;;;;;;;-2.45;100.00;94245.22;10487061;28;20275;-74
2021/01/14 02:19:38;;;;;;;13.05;5.70;;;;;;;-2.77;100.00;94245.03;10486065;28;20051;-74
2021/01/14 02:24:54;;;;;;;12.27;5.97;;;;;;;-2.62;100.00;94240.38;10493290;28;20487;-74
2021/01/14 02:29:58;;;;;;;10.48;5.65;;;;;;;-2.77;100.00;94239.78;10494472;28;20090;-74
2021/01/14 02:34:58;;;;;;;11.18;5.10;;;;;;;-2.79;100.00;94233.91;10493585;28;20025;-74
2021/01/14 02:39:58;;;;;;;13.97;6.77;;;;;;;-2.90;100.00;94237.13;10493819;28;20419;-74
2021/01/14 02:44:59;;;;;;;8.77;4.87;;;;;;;-2.72;100.00;94232.09;10493585;28;20445;-74
2021/01/14 02:50:04;;;;;;;12.50;5.82;;;;;;;-2.90;100.00;94237.97;10493343;28;20283;-74
2021/01/14 02:55:05;;;;;;;12.98;4.85;;;;;;;-2.93;100.00;94239.19;10493530;28;20028;-74
2021/01/14 03:00:08;;;;;;;10.90;5.78;;;;;;;-2.96;100.00;94246.66;10474538;28;20032;-74
2021/01/14 03:05:08;;;;;;;9.57;4.97;;;;;;;-2.88;100.00;94243.03;10493114;28;20029;-74
2021/01/14 03:10:09;;;;;;;9.82;4.90;;;;;;;-2.87;100.00;94249.91;10492834;28;20025;-74
2021/01/14 03:15:09;;;;;;;13.20;4.22;;;;;;;-3.20;100.00;94240.97;10492175;28;20036;-74
2021/01/14 03:20:10;;;;;;;9.25;4.97;;;;;;;-3.22;100.00;94226.41;10492607;28;20040;-73
2021/01/14 03:25:11;;;;;;;8.50;5.13;;;;;;;-3.22;100.00;94226.41;10492464;28;20550;-74
2021/01/14 03:30:16;;;;;;;12.48;4.72;;;;;;;-3.19;100.00;94228.66;10492137;28;20135;-74
2021/01/14 03:35:16;;;;;;;11.43;4.57;;;;;;;-3.05;100.00;94221.59;10507095;28;20036;-74
2021/01/14 03:40:17;;;;;;;12.03;6.47;;;;;;;-3.05;100.00;94211.88;10491871;28;20091;-74
2021/01/14 03:45:18;;;;;;;10.73;4.85;;;;;;;-3.10;100.00;94211.66;10491091;28;20661;-74
2021/01/14 03:50:18;;;;;;;9.93;4.80;;;;;;;-3.24;100.00;94196.91;10491380;28;20020;-74
2021/01/14 03:55:19;;;;;;;7.50;4.53;;;;;;;-3.13;100.00;94197.09;10491069;28;20107;-74
2021/01/14 04:00:19;;;;;;;7.90;4.75;;;;;;;-3.09;100.00;94193.06;10490327;28;20039;-74
2021/01/14 04:05:20;;;;;;;14.07;5.15;;;;;;;-3.09;100.00;94173.84;10491035;28;20107;-74
2021/01/14 04:10:20;;;;;;;7.90;4.77;;;;;;;-2.96;100.00;94179.13;10472895;28;20039;-74
2021/01/14 04:15:20;;;;;;;11.30;4.93;;;;;;;-2.95;100.00;94179.91;10489894;28;20769;-74
2021/01/14 04:20:21;;;;;;;16.73;5.47;;;;;;;-3.11;100.00;94174.06;10489930;28;20052;-74
2021/01/14 04:25:30;;;;;;;17.73;4.93;;;;;;;-3.01;100.00;94178.13;10489916;28;20305;-74
2021/01/14 04:30:35;;;;;;;13.85;5.30;;;;;;;-3.05;100.00;94166.38;10497292;28;20025;-74
2021/01/14 04:35:35;;;;;;;9.98;4.88;;;;;;;-3.00;100.00;94166.56;10491576;28;20905;-74
2021/01/14 04:40:36;;;;;;;13.23;7.40;;;;;;;-3.00;100.00;94164.75;10488698;28;20036;-74
2021/01/14 04:45:38;;;;;;;9.10;4.60;;;;;;;-3.16;100.00;94157.28;10488156;28;20271;-74
2021/01/14 04:50:39;;;;;;;9.43;5.35;;;;;;;-3.09;100.00;94156.25;10489286;28;20278;-74
2021/01/14 04:55:45;;;;;;;8.65;3.90;;;;;;;-3.14;100.00;94155.25;10488291;28;20039;-74
2021/01/14 05:00:50;;;;;;;10.05;4.03;;;;;;;-3.14;100.00;94156.06;10488920;28;20032;-74
2021/01/14 05:05:51;;;;;;;6.75;3.95;;;;;;;-3.20;100.00;94148.19;10469864;28;20024;-75
2021/01/14 05:10:52;;;;;;;5.30;2.63;;;;;;;-3.27;100.00;94145.53;10470166;28;20020;-75
2021/01/14 05:15:52;;;;;;;9.38;3.50;;;;;;;-3.46;100.00;94140.09;10488103;28;20016;-75
2021/01/14 05:20:57;;;;;;;3.57;2.37;;;;;;;-3.32;100.00;94137.44;10488531;28;20052;-74
2021/01/14 05:25:59;;;;;;;9.35;2.92;;;;;;;-3.38;100.00;94130.38;10518641;28;20037;-75
2021/01/14 05:31:17;;;;;;;7.30;3.05;;;;;;;-3.31;100.00;94126.75;10493801;28;20047;-74
2021/01/14 05:36:17;;;;;;;;;;;;;;;-3.18;100.00;94117.22;10529620;28;20043;-74
2021/01/14 05:41:25;;;;;;;11.70;4.38;;;;;;;-3.16;100.00;94107.34;10525552;28;19916;-74
2021/01/14 05:46:26;;;;;;;;;;;;;;;-3.07;100.00;94106.09;10475535;28;20473;-74
2021/01/14 05:51:28;;;;;;;17.45;7.28;;;;;;;-3.32;100.00;94114.63;10522689;28;19919;-74
2021/01/14 05:56:33;;;;;;;18.48;6.47;;;;;;;-3.55;100.00;94122.09;10521708;28;20770;-74
2021/01/14 06:01:35;;;;;;;14.95;7.28;;;;;;;-3.75;100.00;94116.81;10483403;28;20051;-74
2021/01/14 06:06:35;;;;;;;22.70;10.10;;;;;;;-3.99;100.00;94117.19;10494357;28;20037;-75
2021/01/14 06:11:36;;;;;;;26.88;10.98;;;;;;;-4.03;100.00;94131.69;10494013;28;20031;-75
2021/01/14 06:16:49;;;;;;;28.37;11.50;;;;;;;-4.04;100.00;94129.28;10493905;28;20024;-74
2021/01/14 06:21:50;;;;;;;27.17;14.05;;;;;;;-4.03;100.00;94147.44;10495399;28;20298;-76
2021/01/14 06:27:07;;;;;;;29.70;15.35;;;;;;;-3.98;100.00;94155.53;10504750;28;20039;-77
2021/01/14 06:32:09;;;;;;;36.20;16.03;;;;;;;-3.88;100.00;94155.16;10546893;28;20024;-75
2021/01/14 06:37:14;;;;;;;34.63;15.75;;;;;;;-3.87;100.00;94142.84;10506249;28;20032;-75
2021/01/14 06:42:14;;;;;;;38.92;15.45;;;;;;;-3.94;100.00;94142.81;10493389;28;20036;-75
2021/01/14 06:47:40;;;;;;;25.85;12.38;;;;;;;-3.88;100.00;94144.66;10492522;28;20036;-74
2021/01/14 06:52:50;;;;;;;19.65;8.70;;;;;;;-3.95;100.00;94144.66;10474859;28;20028;-74
2021/01/14 06:58:10;;;;;;;20.75;7.78;;;;;;;-4.06;100.00;94141.78;10492705;28;20063;-75
2021/01/14 07:03:17;;;;;;;17.75;8.85;;;;;;;-3.88;100.00;94135.97;10492298;28;20037;-73
2021/01/14 07:08:32;;;;;;;27.40;12.77;;;;;;;-3.83;100.00;94136.19;10498718;28;20039;-74
2021/01/14 07:13:44;;;;;;;29.23;13.20;;;;;;;-3.65;100.00;94146.91;10493933;28;20048;-74
2021/01/14 07:18:45;;;;;;;28.63;12.98;;;;;;;-3.68;100.00;94149.16;10476626;28;20134;-74
2021/01/14 07:23:52;;;;;;;30.38;14.85;;;;;;;-3.69;100.00;94129.94;10482709;28;20092;-74
2021/01/14 07:28:54;;;;;;;35.93;15.90;;;;;;;-3.50;100.00;94141.50;10488446;28;20083;-74
2021/01/14 07:33:55;;;;;;;37.78;16.30;;;;;;;-3.33;100.00;94141.09;10508081;28;20033;-75
2021/01/14 07:38:59;;;;;;;41.42;17.83;;;;;;;-2.92;100.00;94122.50;10475733;28;20040;-75
2021/01/14 07:44:00;;;;;;;40.85;16.98;;;;;;;-2.55;100.00;94122.00;10449526;28;20548;-75
2021/01/14 07:49:00;;;;;;;36.78;17.05;;;;;;;-2.19;100.00;94119.84;10450321;28;20062;-75
2021/01/14 07:54:07;;;;;;;37.47;13.95;;;;;;;-2.26;100.00;94104.06;10449837;28;20409;-75
2021/01/14 07:59:10;;;;;;;38.50;16.70;;;;;;;-1.83;100.00;94100.03;10481964;28;20150;-75
2021/01/14 08:04:21;;;;;;;37.95;13.80;;;;;;;-1.63;100.00;94097.25;10522066;28;20032;-74
2021/01/14 08:09:22;;;;;;;26.67;11.15;;;;;;;-1.17;100.00;94082.09;10523375;28;20722;-74
2021/01/14 08:14:37;;;;;;;24.80;12.95;;;;;;;-0.52;100.00;94092.22;10476659;28;20036;-74
2021/01/14 08:19:38;;;;;;;23.73;12.13;;;;;;;-0.37;100.00;94094.50;10452861;28;20052;-73
2021/01/14 08:24:46;;;;;;;30.05;12.73;;;;;;;0.13;100.00;94086.34;10523751;28;20044;-73
2021/01/14 08:30:11;;;;;;;31.55;13.05;;;;;;;0.46;100.00;94041.97;10481238;28;20033;-73
2021/01/14 08:35:14;;;;;;;35.55;13.35;;;;;;;0.85;100.00;94051.13;10489582;28;20032;-75
2021/01/14 08:40:16;;;;;;;24.67;10.93;;;;;;;1.32;88.59;94025.66;10489133;28;20038;-73
2021/01/14 08:45:20;;;;;;;21.75;11.23;;;;;;;1.92;81.83;93997.16;10470504;28;20040;-73
2021/01/14 08:50:35;;;;;;;21.33;9.68;;;;;;;2.28;77.12;93984.53;10488550;28;20048;-73
2021/01/14 08:55:36;;;;;;;21.02;9.38;;;;;;;2.37;73.73;93985.75;10488307;28;20036;-73
2021/01/14 09:00:37;;;;;;;22.92;9.70;;;;;;;2.29;74.48;93971.03;10487595;28;20111;-74
2021/01/14 09:05:43;;;;;;;20.55;8.48;;;;;;;2.68;72.35;93962.34;10488583;28;20036;-74
2021/01/14 09:10:49;;;;;;;23.13;7.95;;;;;;;2.78;63.08;93940.47;10488030;28;20028;-73
2021/01/14 09:15:52;;;;;;;20.23;8.20;;;;;;;3.25;62.12;93916.13;10488341;28;20035;-74
2021/01/14 09:20:53;;;;;;;14.15;6.60;;;;;;;3.59;57.42;93913.34;10487965;28;20048;-73
2021/01/14 09:25:55;;;;;;;15.88;8.18;;;;;;;4.59;59.33;93896.91;10487821;28;20040;-73
2021/01/14 09:31:04;;;;;;;30.20;11.35;;;;;;;5.33;53.98;93874.88;10487466;28;20043;-73
2021/01/14 09:36:10;;;;;;;28.55;11.65;;;;;;;5.07;52.92;93882.78;10487536;28;20483;-72
2021/01/14 09:41:10;;;;;;;28.17;10.93;;;;;;;4.65;54.29;93876.44;10487424;28;20879;-72
2021/01/14 09:46:14;;;;;;;22.00;11.30;;;;;;;4.74;55.49;93869.56;10487048;28;20028;-72
2021/01/14 09:51:14;;;;;;;16.77;8.63;;;;;;;5.12;51.49;93845.50;10487406;28;20024;-73
2021/01/14 09:56:22;;;;;;;19.02;9.68;;;;;;;5.90;48.77;93839.31;10486858;28;20041;-72
2021/01/14 10:01:27;;;;;;;28.20;11.93;;;;;;;6.52;49.79;93823.28;10502480;28;20032;-73
2021/01/14 10:06:31;;;;;;;22.98;10.80;;;;;;;8.10;46.48;93811.28;10492871;28;20032;-73
2021/01/14 10:11:33;;;;;;;20.70;10.35;;;;;;;8.30;44.59;93821.03;10528920;28;20471;-73
2021/01/14 10:16:35;;;;;;;17.48;9.25;;;;;;;7.13;44.46;93811.63;10470929;28;20024;-72
2021/01/14 10:21:37;;;;;;;21.92;10.48;;;;;;;5.63;47.13;93819.00;10486801;28;20163;-72
2021/01/14 10:26:37;;;;;;;24.83;9.48;;;;;;;4.77;49.84;93825.66;10486404;28;20408;-71
2021/01/14 10:31:39;;;;;;;23.17;9.13;;;;;;;4.24;52.69;93837.09;10494087;28;20028;-71
2021/01/14 10:36:50;;;;;;;22.13;9.25;;;;;;;3.61;56.44;93833.38;10520851;28;20089;-72
2021/01/14 10:41:50;;;;;;;28.13;10.57;;;;;;;3.08;64.37;93837.38;10513723;28;20491;-72
2021/01/14 10:46:51;;;;;;;23.20;11.67;;;;;;;2.77;67.50;93822.13;10530766;28;20032;-72
2021/01/14 10:51:51;;;;;;;25.05;11.55;;;;;;;2.39;68.59;93812.09;10533101;28;20031;-73
2021/01/14 10:56:55;;;;;;;27.27;12.83;;;;;;;2.32;67.91;93802.72;10502038;28;20028;-73
2021/01/14 11:02:05;;;;;;;31.67;13.13;;;;;;;2.41;66.42;93811.06;10516876;28;20072;-72
2021/01/14 11:07:12;;;;;;;29.52;12.32;;;;;;;2.35;70.09;93836.69;10492238;28;20032;-73
2021/01/14 11:12:12;;;;;;;30.17;12.68;;;;;;;2.29;69.08;93825.22;10492054;28;20094;-72
2021/01/14 11:17:13;;;;;;;33.17;13.68;;;;;;;2.39;71.32;93820.06;10515566;28;20082;-71
2021/01/14 11:22:14;;;;;;;40.45;14.27;;;;;;;2.35;71.53;93820.78;10533773;28;20052;-71
2021/01/14 11:27:14;;;;;;;33.00;14.53;;;;;;;2.06;74.80;93815.59;10533996;28;20478;-71
2021/01/14 11:32:14;;;;;;;46.00;16.23;;;;;;;1.82;79.12;93810.47;10532958;28;20028;-72
2021/01/14 11:37:15;;;;;;;40.23;17.37;;;;;;;1.85;78.69;93806.53;10533490;28;20039;-71
2021/01/14 11:42:15;;;;;;;48.93;15.63;;;;;;;1.69;78.21;93805.53;10531836;28;20094;-71
2021/01/14 11:47:16;;;;;;;32.13;11.30;;;;;;;1.76;75.42;93776.19;10531132;28;20034;-72
2021/01/14 11:52:16;;;;;;;36.80;12.70;;;;;;;1.67;73.51;93776.59;10529825;28;20028;-71
2021/01/14 11:57:16;;;;;;;35.78;13.02;;;;;;;1.87;71.37;93777.94;10527551;28;20019;-72
2021/01/14 12:02:17;;;;;;;37.72;13.45;;;;;;;1.99;69.61;93764.63;10489595;28;20033;-72
2021/01/14 12:07:17;;;;;;;26.67;12.43;;;;;;;2.01;70.67;93758.03;10509945;28;20027;-73
2021/01/14 12:12:18;;;;;;;36.60;15.82;;;;;;;1.95;69.26;93774.09;10513955;28;20042;-73
2021/01/14 12:17:18;;;;;;;31.42;15.10;;;;;;;1.80;71.51;93774.66;10513198;28;20036;-72
2021/01/14 12:22:18;;;;;;;44.83;15.75;;;;;;;1.72;72.14;93765.31;10513422;28;20048;-72
2021/01/14 12:27:19;;;;;;;47.80;16.70;;;;;;;1.56;71.29;93766.09;10513494;28;20032;-72
2021/01/14 12:32:19;;;;;;;37.70;16.10;;;;;;;1.38;73.59;93764.47;10531144;28;20716;-72
2021/01/14 12:37:20;;;;;;;39.63;15.70;;;;;;;1.04;77.88;93775.81;10530837;28;20135;-72
2021/01/14 12:42:20;;;;;;;42.22;15.75;;;;;;;1.07;79.13;93790.44;10521257;28;20062;-72
2021/01/14 12:47:21;;;;;;;47.27;14.83;;;;;;;0.95;79.63;93782.53;10529995;28;20039;-72
2021/01/14 12:52:21;;;;;;;39.95;14.80;;;;;;;0.93;81.24;93784.63;10527213;28;20335;-72
2021/01/14 12:57:22;;;;;;;29.00;14.48;;;;;;;0.98;81.37;93782.06;10528853;28;20028;-72
2021/01/14 13:02:22;;;;;;;39.83;16.27;;;;;;;1.06;84.74;93787.00;10526913;28;20020;-72
2021/01/14 13:07:22;;;;;;;37.63;14.97;;;;;;;0.73;84.00;93783.19;10528490;28;20032;-72
2021/01/14 13:12:24;;;;;;;35.53;15.87;;;;;;;0.78;84.77;93772.72;10529031;28;20032;-72
2021/01/14 13:17:25;;;;;;;33.75;14.45;;;;;;;0.63;84.87;93789.09;10487983;28;20028;-72
2021/01/14 13:22:26;;;;;;;27.47;12.73;;;;;;;0.67;85.76;93797.34;10487195;28;20040;-72
2021/01/14 13:27:26;;;;;;;31.58;12.38;;;;;;;0.34;87.78;93804.88;10487514;28;20275;-72
2021/01/14 13:32:26;;;;;;;27.53;12.60;;;;;;;0.24;90.62;93801.22;10487840;28;20039;-72
2021/01/14 13:37:27;;;;;;;26.43;12.00;;;;;;;0.46;95.37;93806.72;10487140;28;20274;-72
2021/01/14 13:42:27;;;;;;;17.30;7.50;;;;;;;0.67;97.49;93803.44;10469295;28;20281;-72
2021/01/14 13:47:29;;;;;;;12.93;5.63;;;;;;;0.76;100.00;93797.78;10487731;28;20365;-73
2021/01/14 13:52:30;;;;;;;13.80;6.88;;;;;;;0.80;100.00;93798.94;10486806;28;20545;-73
2021/01/14 13:57:30;;;;;;;15.93;6.83;;;;;;;0.85;100.00;93797.19;10469100;28;20029;-73
2021/01/14 14:02:31;;;;;;;10.43;3.97;;;;;;;1.06;100.00;93817.91;10486803;28;20305;-73
2021/01/14 14:07:31;;;;;;;21.43;3.20;;;;;;;1.05;100.00;93811.84;10469038;28;20025;-73
2021/01/14 14:12:31;;;;;;;5.27;2.80;;;;;;;0.81;100.00;93813.75;10486098;28;20263;-73
2021/01/14 14:17:32;;;;;;;10.00;4.07;;;;;;;0.58;100.00;93847.16;10472089;28;20081;-72
2021/01/14 14:22:33;;;;;;;13.02;5.30;;;;;;;0.46;100.00;93838.44;10497033;28;20052;-73
2021/01/14 14:27:34;;;;;;;18.58;6.03;;;;;;;0.20;100.00;93845.03;10507914;28;20510;-73
2021/01/14 14:32:34;;;;;;;14.82;8.32;;;;;;;-0.26;100.00;93855.34;10493987;28;20107;-73
2021/01/14 14:37:35;;;;;;;20.48;9.07;;;;;;;-0.74;100.00;93870.22;10493771;28;20032;-73
2021/01/14 14:42:35;;;;;;;21.27;10.80;;;;;;;-1.13;100.00;93865.25;10508282;28;20031;-73
2021/01/14 14:47:35;;;;;;;22.67;8.55;;;;;;;-1.58;100.00;93873.47;10518667;28;20275;-74
2021/01/14 14:52:36;;;;;;;19.83;8.85;;;;;;;-1.73;100.00;93868.53;10502536;28;20085;-74
2021/01/14 14:57:36;;;;;;;22.07;10.73;;;;;;;-1.83;100.00;93891.94;10534630;28;20039;-74
2021/01/14 15:02:37;;;;;;;21.23;12.25;;;;;;;-2.04;100.00;93891.31;10534546;28;20681;-74
2021/01/14 15:07:37;;;;;;;21.80;10.43;;;;;;;-2.04;100.00;93883.41;10533511;28;20024;-74
2021/01/14 15:12:37;;;;;;;29.33;12.07;;;;;;;-2.08;100.00;93895.41;10491956;28;20700;-74
2021/01/14 15:17:39;;;;;;;26.93;12.87;;;;;;;-2.06;100.00;93904.69;10492430;28;20032;-74
2021/01/14 15:22:39;;;;;;;26.58;12.00;;;;;;;-1.92;100.00;93900.13;10491286;28;20310;-73
2021/01/14 15:27:40;;;;;;;26.15;13.18;;;;;;;-1.80;100.00;93902.88;10491024;28;20031;-74
2021/01/14 15:32:41;;;;;;;20.57;12.40;;;;;;;-1.81;100.00;93903.09;10501134;28;20020;-73
2021/01/14 15:37:41;;;;;;;27.65;13.32;;;;;;;-1.63;100.00;93897.84;10515991;28;20278;-74
2021/01/14 15:42:42;;;;;;;18.98;11.85;;;;;;;-1.49;100.00;93902.97;10532754;28;20036;-74
2021/01/14 15:47:43;;;;;;;22.65;12.50;;;;;;;-1.49;100.00;93889.78;10532249;28;20395;-75
2021/01/14 15:52:44;;;;;;;22.77;12.40;;;;;;;-1.41;100.00;93900.88;10504455;28;20024;-74
2021/01/14 15:57:44;;;;;;;28.65;12.50;;;;;;;-1.24;100.00;93887.91;10502324;28;20066;-74
2021/01/14 16:02:45;;;;;;;31.77;13.00;;;;;;;-1.38;100.00;93889.88;10499084;28;20063;-74
2021/01/14 16:07:45;;;;;;;23.45;12.68;;;;;;;-1.25;100.00;93888.13;10502014;28;20356;-73
2021/01/14 16:12:46;;;;;;;26.13;14.70;;;;;;;-1.10;100.00;93890.38;10520800;28;20043;-73
2021/01/14 16:17:46;;;;;;;26.73;11.68;;;;;;;-1.06;100.00;93896.81;10515556;28;20092;-73
2021/01/14 16:22:47;;;;;;;27.42;13.88;;;;;;;-1.02;100.00;93913.00;10531516;28;20151;-73
2021/01/14 16:27:47;;;;;;;27.43;12.90;;;;;;;-1.01;100.00;93909.34;10531450;28;20410;-73
2021/01/14 16:32:47;;;;;;;20.60;11.90;;;;;;;-0.99;100.00;93915.19;10523850;28;20273;-73
2021/01/14 16:37:48;;;;;;;24.98;12.25;;;;;;;-0.88;100.00;93925.00;10489229;28;20270;-73
2021/01/14 16:42:48;;;;;;;22.02;11.45;;;;;;;-0.91;100.00;93939.44;10526151;28;20029;-73
2021/01/14 16:47:49;;;;;;;23.00;11.47;;;;;;;-0.97;100.00;93937.69;10525129;28;20035;-74
2021/01/14 16:52:49;;;;;;;23.50;9.93;;;;;;;-0.97;100.00;93945.59;10524225;28;20066;-73
2021/01/14 16:57:49;;;;;;;20.00;10.02;;;;;;;-1.11;100.00;93957.31;10518701;28;20281;-74
2021/01/14 17:02:50;;;;;;;22.23;10.47;;;;;;;-1.16;100.00;93955.31;10486298;28;20032;-74
2021/01/14 17:07:50;;;;;;;26.13;9.63;;;;;;;-1.18;100.00;93953.97;10480118;28;20289;-73
2021/01/14 17:12:50;;;;;;;16.42;9.75;;;;;;;-1.32;100.00;93940.91;10483214;28;20047;-73
2021/01/14 17:17:51;;;;;;;18.95;9.20;;;;;;;-1.60;100.00;93944.03;10509210;28;20031;-73
2021/01/14 17:22:51;;;;;;;26.60;10.27;;;;;;;-1.36;100.00;93937.09;10519822;28;20474;-74
2021/01/14 17:27:52;;;;;;;21.60;10.87;;;;;;;-1.25;100.00;93943.47;10519593;28;20715;-74
2021/01/14 17:32:52;;;;;;;19.55;10.77;;;;;;;-1.18;100.00;93940.78;10521786;28;20281;-74
2021/01/14 17:37:53;;;;;;;23.92;12.15;;;;;;;-1.00;100.00;93932.06;10493378;28;20032;-74
2021/01/14 17:42:53;;;;;;;16.05;9.85;;;;;;;-0.88;100.00;93940.81;10527497;28;20125;-74
2021/01/14 17:47:54;;;;;;;27.42;10.52;;;;;;;-0.93;100.00;93944.13;10526256;28;20453;-74
2021/01/14 17:52:55;;;;;;;21.40;10.65;;;;;;;-0.84;100.00;93935.91;10505177;28;20925;-74
2021/01/14 17:57:55;;;;;;;16.92;9.20;;;;;;;-0.77;100.00;93952.47;10513692;28;20020;-74
2021/01/14 18:02:55;;;;;;;20.08;9.40;;;;;;;-0.74;100.00;93962.56;10530416;28;20024;-73
2021/01/14 18:07:56;;;;;;;19.57;9.70;;;;;;;-0.65;100.00;93953.31;10528994;28;20028;-73
2021/01/14 18:12:56;;;;;;;20.92;10.75;;;;;;;-0.67;100.00;93968.59;10532108;28;20274;-73
2021/01/14 18:17:57;;;;;;;19.45;9.77;;;;;;;-0.73;100.00;93972.91;10529920;28;20503;-74
2021/01/14 18:22:57;;;;;;;19.98;10.60;;;;;;;-0.74;100.00;93971.31;10531488;28;20040;-74
2021/01/14 18:27:57;;;;;;;18.70;9.47;;;;;;;-0.77;100.00;93966.44;10510041;28;20031;-74
2021/01/14 18:32:58;;;;;;;17.92;9.75;;;;;;;-0.73;100.00;93943.06;10532219;28;20269;-74
2021/01/14 18:37:58;;;;;;;17.00;8.80;;;;;;;-0.87;100.00;93966.97;10531318;28;20024;-74
2021/01/14 18:42:59;;;;;;;14.30;6.28;;;;;;;-0.86;100.00;93984.41;10528848;28;20452;-74
2021/01/14 18:47:59;;;;;;;12.82;6.32;;;;;;;-0.80;100.00;93982.72;10512021;28;20077;-74
2021/01/14 18:53:00;;;;;;;13.38;7.18;;;;;;;-0.87;100.00;94005.75;10530471;28;20091;-74
2021/01/14 18:58:00;;;;;;;17.35;5.85;;;;;;;-0.87;100.00;94014.44;10509381;28;20027;-71
2021/01/14 19:03:01;;;;;;;6.70;3.90;;;;;;;-1.19;100.00;94034.88;10528571;28;20055;-71
2021/01/14 19:08:01;;;;;;;10.38;4.82;;;;;;;-1.05;100.00;94035.53;10511248;28;20120;-71
2021/01/14 19:13:01;;;;;;;4.95;2.85;;;;;;;-1.26;100.00;94037.56;10529195;28;20016;-71
2021/01/14 19:18:02;;;;;;;5.70;3.47;;;;;;;-1.37;100.00;94035.63;10505823;28;20028;-71
2021/01/14 19:23:03;;;;;;;7.18;3.60;;;;;;;-1.42;100.00;94077.66;10529918;28;20040;-71
2021/01/14 19:28:04;;;;;;;5.70;3.67;;;;;;;-1.90;100.00;94077.19;10529181;28;20020;-70
2021/01/14 19:33:04;;;;;;;5.13;3.20;;;;;;;-1.71;100.00;94079.88;10524360;28;20410;-70
2021/01/14 19:38:05;;;;;;;8.27;3.05;;;;;;;-1.82;100.00;94078.72;10527644;28;20028;-71
2021/01/14 19:43:05;;;;;;;4.75;2.75;;;;;;;-2.03;100.00;94082.50;10549950;28;20679;-70
2021/01/14 19:48:06;;;;;;;7.93;3.20;;;;;;;-2.12;100.00;94089.03;10519396;28;20024;-71
2021/01/14 19:53:07;;;;;;;8.90;4.32;;;;;;;-1.99;100.00;94086.34;10512758;28;20270;-70
2021/01/14 19:58:07;;;;;;;7.05;3.47;;;;;;;-2.34;100.00;94088.53;10511204;28;20028;-70
2021/01/14 20:03:07;;;;;;;5.70;3.13;;;;;;;-2.33;100.00;94100.66;10501057;28;20057;-70
2021/01/14 20:08:08;;;;;;;6.50;3.20;;;;;;;-2.42;100.00;94094.84;10488709;28;20174;-69
2021/01/14 20:13:08;;;;;;;8.23;4.40;;;;;;;-2.56;100.00;94101.97;10497689;28;20039;-70
2021/01/14 20:18:09;;;;;;;6.83;3.83;;;;;;;-2.59;100.00;94105.81;10510207;28;20311;-70
2021/01/14 20:23:09;;;;;;;7.20;4.28;;;;;;;-2.83;100.00;94109.09;10494329;28;20298;-70
2021/01/14 20:28:10;;;;;;;10.70;4.30;;;;;;;-2.82;100.00;94123.88;10516693;28;20027;-70
2021/01/14 20:33:10;;;;;;;10.32;5.40;;;;;;;-2.90;100.00;94134.59;10487688;28;20395;-69
2021/01/14 20:38:12;;;;;;;7.43;4.50;;;;;;;-2.93;100.00;94126.13;10515612;28;20028;-70
2021/01/14 20:43:13;;;;;;;6.20;4.70;;;;;;;-2.99;100.00;94121.66;10528069;28;20282;-70
2021/01/14 20:48:13;;;;;;;10.18;5.65;;;;;;;-2.88;100.00;94136.03;10556956;28;20020;-70
2021/01/14 20:53:14;;;;;;;5.93;4.38;;;;;;;-2.93;100.00;94151.59;10539378;28;20453;-70
2021/01/14 20:58:14;;;;;;;11.33;5.53;;;;;;;-2.91;100.00;94152.22;10528715;28;20479;-69
2021/01/14 21:03:14;;;;;;;7.50;4.93;;;;;;;-2.93;100.00;94123.50;10513729;28;20333;-69
2021/01/14 21:08:15;;;;;;;9.65;5.22;;;;;;;-3.02;100.00;94147.56;10527470;28;20274;-70
2021/01/14 21:13:15;;;;;;;12.38;4.72;;;;;;;-2.99;100.00;94192.66;10520278;28;20535;-69
2021/01/14 21:18:16;;;;;;;10.27;4.18;;;;;;;-2.94;100.00;94163.94;10510759;28;20086;-69
2021/01/14 21:23:16;;;;;;;6.55;3.95;;;;;;;-2.90;100.00;94164.34;10498458;28;20097;-69
2021/01/14 21:28:16;;;;;;;7.50;4.70;;;;;;;-2.66;100.00;94183.94;10527368;28;20035;-70
2021/01/14 21:33:17;;;;;;;11.50;6.60;;;;;;;-2.48;100.00;94193.03;10522195;28;20284;-70
2021/01/14 21:38:17;;;;;;;6.38;4.45;;;;;;;-2.17;100.00;94200.22;10528771;28;20389;-70
2021/01/14 21:43:19;;;;;;;7.30;3.90;;;;;;;-2.13;100.00;94203.25;10526279;28;20047;-69
2021/01/14 21:48:20;;;;;;;6.63;3.28;;;;;;;-2.21;100.00;94192.97;10484939;28;20270;-70
2021/01/14 21:53:20;;;;;;;6.57;4.17;;;;;;;-2.62;100.00;94168.56;10468791;28;20732;-70
2021/01/14 21:58:20;;;;;;;8.33;3.67;;;;;;;-2.85;100.00;94169.00;10485748;28;20712;-70
2021/01/14 22:03:21;;;;;;;5.23;3.50;;;;;;;-2.83;100.00;94170.41;10485657;28;20464;-70
2021/01/14 22:08:21;;;;;;;5.27;2.67;;;;;;;-2.96;100.00;94158.09;10466913;28;20029;-70
2021/01/14 22:13:21;;;;;;;5.63;3.30;;;;;;;-3.01;100.00;94176.28;10484802;28;20277;-70
2021/01/14 22:18:22;;;;;;;6.33;3.60;;;;;;;-3.01;100.00;94181.53;10485342;28;20170;-70
2021/01/14 22:23:26;;;;;;;5.65;2.53;;;;;;;-3.09;100.00;94176.47;10490181;28;20075;-70
2021/01/14 22:28:26;;;;;;;3.42;2.47;;;;;;;-2.96;100.00;94186.19;10525813;28;20035;-70
2021/01/14 22:33:27;;;;;;;5.70;3.43;;;;;;;-2.90;100.00;94189.81;10527142;28;20031;-70
2021/01/14 22:38:27;;;;;;;3.30;2.50;;;;;;;-2.92;100.00;94182.97;10530313;28;20032;-70
2021/01/14 22:43:29;;;;;;;4.20;2.97;;;;;;;-3.09;100.00;94184.38;10535087;28;20028;-70
2021/01/14 22:48:29;;;;;;;3.65;1.80;;;;;;;-3.30;100.00;94194.03;10534535;28;20270;-70
2021/01/14 22:53:29;;;;;;;2.83;2.40;;;;;;;-3.34;100.00;94184.94;10529793;28;20054;-70
2021/01/14 22:58:30;;;;;;;7.53;2.70;;;;;;;-3.52;100.00;94182.09;10492073;28;20325;-70